createdAt,value
2024-01-09T00:37:11.126Z,-4.95
2024-01-09T00:57:11.122Z,-4.83
2024-01-09T01:17:11.140Z,-4.98
2024-01-09T01:22:11.124Z,-5
2024-01-09T01:27:11.117Z,-5.02
2024-01-09T01:37:11.116Z,-5.15
2024-01-09T01:42:11.130Z,-5.15
2024-01-09T01:52:11.148Z,-5.36
2024-01-09T02:07:11.200Z,-5.32
2024-01-09T02:17:11.163Z,-5.32
2024-01-09T02:32:11.185Z,-5.27
2024-01-09T02:37:11.162Z,-5.24
2024-01-09T02:42:11.160Z,-5.19
2024-01-09T02:47:11.174Z,-5.22
2024-01-09T02:52:11.151Z,-5.24
2024-01-09T02:57:11.185Z,-5.31
2024-01-09T03:02:11.176Z,-5.29
2024-01-09T03:07:11.305Z,-5.3
2024-01-09T03:12:11.185Z,-5.33
2024-01-09T03:17:11.231Z,-5.35
2024-01-09T03:22:11.168Z,-5.35
2024-01-09T03:27:11.161Z,-5.42
2024-01-09T03:32:11.229Z,-5.48
2024-01-09T03:37:11.206Z,-5.52
2024-01-09T03:42:11.176Z,-5.54
2024-01-09T03:47:11.189Z,-5.55
2024-01-09T03:52:11.193Z,-5.62
2024-01-09T03:57:11.215Z,-5.66
2024-01-09T04:02:11.184Z,-5.7
2024-01-09T04:07:11.186Z,-5.7
2024-01-09T04:12:11.189Z,-5.78
2024-01-09T04:17:11.332Z,-5.79
2024-01-09T04:22:11.177Z,-5.79
2024-01-09T04:27:11.190Z,-5.79
2024-01-09T04:32:11.278Z,-5.82
2024-01-09T04:37:11.188Z,-5.84
2024-01-09T04:42:11.242Z,-5.9
2024-01-09T04:47:11.239Z,-5.92
2024-01-09T04:52:11.192Z,-5.92
2024-01-09T04:57:11.207Z,-5.93
2024-01-09T05:02:11.259Z,-5.98
2024-01-09T05:07:11.238Z,-5.97
2024-01-09T05:12:11.222Z,-5.99
2024-01-09T05:17:11.244Z,-6.01
2024-01-09T05:22:11.193Z,-6.01
2024-01-09T05:27:11.219Z,-6.06
2024-01-09T05:32:11.259Z,-6.01
2024-01-09T05:37:11.196Z,-6
2024-01-09T05:42:11.220Z,-6.05
2024-01-09T05:47:11.287Z,-6.16
2024-01-09T05:52:11.209Z,-6.28
2024-01-09T05:57:11.230Z,-6.33
2024-01-09T06:02:11.244Z,-6.49
2024-01-09T06:22:11.249Z,-7.27
2024-01-09T06:32:11.257Z,-7.03
2024-01-09T07:02:11.278Z,-7.82
2024-01-09T07:07:12.842Z,-7.87
2024-01-09T07:12:11.238Z,-7.91
2024-01-09T07:27:11.275Z,-7.89
2024-01-09T07:42:11.268Z,-7.67
2024-01-09T07:47:11.352Z,-7.57
2024-01-09T07:57:18.406Z,-7.32
2024-01-09T08:07:11.343Z,-7.04
2024-01-09T08:12:11.294Z,-7.03
2024-01-09T08:37:11.290Z,-6.59
2024-01-09T09:02:11.304Z,-6.22
2024-01-09T09:07:11.356Z,-6.09
2024-01-09T09:12:11.356Z,-5.9
2024-01-09T09:17:11.355Z,-5.83
2024-01-09T09:22:11.365Z,-5.75
2024-01-09T09:27:11.395Z,-5.72
2024-01-09T09:32:11.329Z,-5.62
2024-01-09T09:37:11.313Z,-5.61
2024-01-09T09:42:11.343Z,-5.56
2024-01-09T09:47:11.353Z,-5.55
2024-01-09T09:52:11.323Z,-5.52
2024-01-09T09:57:11.356Z,-5.4
2024-01-09T10:02:11.343Z,-5.32
2024-01-09T10:07:11.325Z,-5.18
2024-01-09T10:12:11.335Z,-5.15
2024-01-09T10:17:11.350Z,-5.1
2024-01-09T10:22:11.325Z,-5.04
2024-01-09T10:27:11.389Z,-4.97
2024-01-09T10:32:11.339Z,-4.89
2024-01-09T10:37:11.331Z,-4.85
2024-01-09T10:42:11.369Z,-4.78
2024-01-09T10:47:11.365Z,-4.68
2024-01-09T10:52:11.410Z,-4.59
2024-01-09T10:57:11.369Z,-4.55
2024-01-09T11:02:11.337Z,-4.5
2024-01-09T11:07:11.363Z,-4.38
2024-01-09T11:12:11.370Z,-4.28
2024-01-09T11:17:11.352Z,-4.22
2024-01-09T11:22:11.365Z,-4.26
2024-01-09T11:27:11.372Z,-4.21
2024-01-09T11:32:11.353Z,-4.15
2024-01-09T11:37:11.338Z,-4.06
2024-01-09T11:42:11.370Z,-3.99
2024-01-09T11:47:11.395Z,-3.98
2024-01-09T11:52:11.374Z,-4.06
2024-01-09T11:57:11.557Z,-4.07
2024-01-09T12:02:11.354Z,-4.13
2024-01-09T12:07:11.451Z,-4.13
2024-01-09T12:12:11.419Z,-4.03
2024-01-09T12:17:11.409Z,-4.02
2024-01-09T12:22:11.374Z,-4.01
2024-01-09T12:27:11.391Z,-4.01
2024-01-09T12:32:11.380Z,-4.01
2024-01-09T12:37:11.401Z,-3.92
2024-01-09T12:42:11.400Z,-3.91
2024-01-09T12:47:11.364Z,-3.92
2024-01-09T12:52:11.371Z,-3.96
2024-01-09T12:57:11.428Z,-3.93
2024-01-09T13:02:11.388Z,-3.9
2024-01-09T13:07:11.411Z,-3.92
2024-01-09T13:12:14.546Z,-3.96
2024-01-09T13:17:11.378Z,-3.97
2024-01-09T13:23:40.878Z,-3.97
2024-01-09T13:27:11.436Z,-3.98
2024-01-09T13:32:11.444Z,-4
2024-01-09T13:37:11.357Z,-4.02
2024-01-09T13:42:11.376Z,-4.02
2024-01-09T13:47:11.429Z,-4.06
2024-01-09T13:52:11.377Z,-4.08
2024-01-09T13:57:11.406Z,-4.12
2024-01-09T14:02:11.505Z,-4.13
2024-01-09T14:07:11.369Z,-4.21
2024-01-09T14:12:11.405Z,-4.21
2024-01-09T14:17:11.458Z,-4.26
2024-01-09T14:22:11.373Z,-4.3
2024-01-09T14:37:12.885Z,-4.48
2024-01-09T14:47:11.581Z,-4.6
2024-01-09T15:12:11.393Z,-4.95
2024-01-09T15:17:11.445Z,-5.05
2024-01-09T15:27:11.381Z,-5.15
2024-01-09T15:42:11.416Z,-5.42
2024-01-09T15:47:11.492Z,-5.49
2024-01-09T15:52:11.421Z,-5.56
2024-01-09T17:07:11.412Z,-6.09
2024-01-09T17:17:11.438Z,-6.13
2024-01-09T17:22:11.434Z,-6.23
2024-01-09T17:27:11.443Z,-6.33
2024-01-09T17:32:11.446Z,-6.4
2024-01-09T17:37:11.443Z,-6.48
2024-01-09T17:42:11.486Z,-6.53
2024-01-09T17:47:11.545Z,-6.58
2024-01-09T17:52:11.482Z,-6.64
2024-01-09T17:57:11.445Z,-6.71
2024-01-09T18:02:11.461Z,-6.75
2024-01-09T18:07:11.464Z,-6.79
2024-01-09T18:12:11.424Z,-6.87
2024-01-09T18:17:11.465Z,-7.02
2024-01-09T18:22:11.432Z,-7.03
2024-01-09T18:27:11.431Z,-7.03
2024-01-09T18:32:11.469Z,-7.11
2024-01-09T18:37:11.470Z,-7.18
2024-01-09T18:42:11.494Z,-7.25
2024-01-09T18:47:11.526Z,-7.36
2024-01-09T18:52:11.640Z,-7.42
2024-01-09T18:57:11.518Z,-7.51
2024-01-09T19:02:11.555Z,-7.58
2024-01-09T19:07:11.488Z,-7.62
2024-01-09T19:12:11.490Z,-7.68
2024-01-09T19:17:11.612Z,-7.72
2024-01-09T19:22:11.490Z,-7.74
2024-01-09T19:27:11.501Z,-7.78
2024-01-09T19:32:11.529Z,-7.84
2024-01-09T19:37:11.471Z,-7.89
2024-01-09T19:42:12.018Z,-7.93
2024-01-09T19:47:11.619Z,-7.97
2024-01-09T19:52:11.534Z,-7.97
2024-01-09T19:57:11.533Z,-7.97
2024-01-09T20:02:11.606Z,-8.02
2024-01-09T20:07:11.554Z,-8.05
2024-01-09T20:12:13.286Z,-8
2024-01-09T20:17:11.536Z,-8.14
2024-01-09T20:22:11.537Z,-8.3
2024-01-09T20:27:11.522Z,-8.43
2024-01-09T20:32:11.544Z,-8.55
2024-01-09T20:37:11.532Z,-8.63
2024-01-09T20:42:11.538Z,-8.69
2024-01-09T21:07:11.543Z,-8.92
2024-01-09T21:27:11.572Z,-9.04
2024-01-09T21:52:11.570Z,-9.23
2024-01-09T22:12:11.575Z,-9.21
2024-01-09T22:22:11.601Z,-9.25
2024-01-09T22:37:11.593Z,-9.33
2024-01-09T23:42:11.682Z,-9.44
2024-01-09T23:47:11.778Z,-9.33
2024-01-09T23:52:11.701Z,-9.18
2024-01-09T23:57:12.717Z,-9.01
